Time;durP1;ratioP1;P1;durP2;ratioP2;P2;SDS_P1;SDS_P2;PMS_P1;PMS_P2;Temp;Humidity;BMP_temperature;BMP_pressure;BME280_temperature;BME280_humidity;BME280_pressure;Samples;Min_cycle;Max_cycle;Signal;HPM_P1;HPM_P2
2022/12/15 00:40:41;;;;;;;;;;;;;;;8.49;43.80;98531.69;4356133;32;33620;-66
2022/12/15 00:43:10;;;;;;;;;;;;;;;8.78;43.24;98545.19;4356859;32;33887;-65
2022/12/15 00:48:24;;;;;;;;;;;;;;;8.35;44.06;98541.66;4354392;32;33838;-68
2022/12/15 00:50:51;;;;;;;;;;;;;;;8.49;44.02;98524.53;4356068;32;33023;-67
2022/12/15 01:21:00;;;;;;;;;;;;;;;8.41;44.38;98540.34;4358381;32;34664;-66
2022/12/15 01:23:28;;;;;;;;;;;;;;;8.59;43.97;98536.09;4357932;32;34327;-65
2022/12/15 01:25:55;;;;;;;;;;;;;;;8.72;43.55;98537.69;4355912;32;34153;-65
2022/12/15 01:28:23;;;;;;;;;;;;;;;8.86;43.32;98534.69;4357333;32;33245;-68
2022/12/15 01:30:50;;;;;;;;;;;;;;;8.68;43.73;98530.94;4356794;32;33909;-65
2022/12/15 01:33:17;;;;;;;;;;;;;;;8.32;44.42;98539.25;4357700;32;34150;-65
2022/12/15 01:35:45;;;;;;;;;;;;;;;8.71;43.70;98534.19;4355024;32;33588;-65
2022/12/15 01:38:12;;;;;;;;;;;;;;;8.51;44.16;98522.59;4357760;32;33331;-65
2022/12/15 01:40:45;;;;;;;;;;;;;;;8.50;44.21;98531.53;4356212;32;33379;-68
2022/12/15 01:43:14;;;;;;;;;;;;;;;8.45;44.32;98533.78;4354984;32;34625;-65
2022/12/15 01:46:05;;;;;;;;;;;;;;;7.41;46.63;98534.38;4356145;32;34643;-66
2022/12/15 01:48:53;;;;;;;;;;;;;;;7.68;46.71;98534.81;4351766;32;32840;-69
2022/12/15 01:51:23;;;;;;;;;;;;;;;8.03;45.50;98531.06;4354494;32;34211;-64
2022/12/15 01:53:50;;;;;;;;;;;;;;;8.69;44.00;98540.63;4353756;32;34002;-64
2022/12/15 01:56:18;;;;;;;;;;;;;;;8.71;43.89;98534.19;4355710;32;33724;-64
2022/12/15 01:58:46;;;;;;;;;;;;;;;7.88;45.85;98532.31;4360207;32;34525;-66
2022/12/15 02:01:14;;;;;;;;;;;;;;;8.37;44.53;98529.03;4341923;32;35047;-62
2022/12/15 02:03:42;;;;;;;;;;;;;;;8.65;44.06;98542.72;4359352;32;34588;-63
2022/12/15 02:06:09;;;;;;;;;;;;;;;8.83;43.57;98542.97;4356707;32;34636;-65
2022/12/15 02:08:36;;;;;;;;;;;;;;;8.65;43.90;98533.88;4356332;32;34234;-64
2022/12/15 02:11:10;;;;;;;;;;;;;;;9.00;43.26;98529.00;4359658;32;32836;-66
2022/12/15 02:13:53;;;;;;;;;;;;;;;8.67;44.09;98523.91;4345715;32;35038;-67
2022/12/15 02:16:24;;;;;;;;;;;;;;;8.54;44.51;98535.66;4357134;32;34181;-66
2022/12/15 02:18:52;;;;;;;;;;;;;;;8.68;44.00;98544.28;4345465;32;34095;-64
2022/12/15 02:21:21;;;;;;;;;;;;;;;8.96;43.43;98551.59;4356934;32;32782;-64
2022/12/15 02:23:51;;;;;;;;;;;;;;;8.71;43.70;98552.03;4356170;32;34589;-65
2022/12/15 02:26:37;;;;;;;;;;;;;;;9.00;43.35;98558.34;4356662;32;32503;-63
2022/12/15 02:29:22;;;;;;;;;;;;;;;8.99;43.36;98547.78;4355833;32;33398;-67
2022/12/15 02:31:52;;;;;;;;;;;;;;;9.10;43.24;98545.87;4352933;32;33895;-65
2022/12/15 02:34:19;;;;;;;;;;;;;;;8.86;43.54;98538.22;4356735;32;35474;-65
2022/12/15 02:36:48;;;;;;;;;;;;;;;9.08;43.15;98542.53;4355571;32;34017;-65
2022/12/15 02:39:16;;;;;;;;;;;;;;;9.05;43.25;98539.25;4352016;32;33542;-66
2022/12/15 02:41:44;;;;;;;;;;;;;;;8.98;43.38;98538.09;4339351;32;33796;-64
2022/12/15 02:44:16;;;;;;;;;;;;;;;8.93;43.48;98543.03;4357948;32;34291;-63
2022/12/15 02:47:03;;;;;;;;;;;;;;;9.08;43.18;98542.53;4354416;32;34042;-64
2022/12/15 02:49:50;;;;;;;;;;;;;;;8.88;43.81;98543.41;4357435;32;33193;-64
2022/12/15 02:52:24;;;;;;;;;;;;;;;9.10;43.21;98553.06;4352609;32;33939;-64
2022/12/15 02:54:51;;;;;;;;;;;;;;;8.93;43.78;98554.53;4342785;32;33329;-64
2022/12/15 02:57:22;;;;;;;;;;;;;;;9.13;43.20;98546.59;4357391;32;35204;-64
2022/12/15 02:59:55;;;;;;;;;;;;;;;8.91;43.75;98540.47;4354337;32;33132;-66
2022/12/15 03:02:23;;;;;;;;;;;;;;;8.91;43.75;98542.28;4348358;32;34064;-67
2022/12/15 03:04:51;;;;;;;;;;;;;;;8.89;43.67;98542.41;4356193;32;35047;-64
2022/12/15 03:07:18;;;;;;;;;;;;;;;9.09;43.22;98544.22;4355204;32;35143;-67
2022/12/15 03:09:45;;;;;;;;;;;;;;;9.16;43.06;98549.84;4356271;32;32092;-65
2022/12/15 03:12:14;;;;;;;;;;;;;;;9.08;43.21;98550.53;4351174;32;34118;-63
2022/12/15 03:14:41;;;;;;;;;;;;;;;9.06;43.25;98554.31;4360642;32;35145;-64
2022/12/15 03:17:09;;;;;;;;;;;;;;;8.96;43.57;98554.28;4359317;32;34062;-63
2022/12/15 03:19:36;;;;;;;;;;;;;;;9.17;43.20;98553.34;4358220;32;33193;-64
2022/12/15 03:22:03;;;;;;;;;;;;;;;8.85;43.77;98557.84;4356918;32;33756;-66
2022/12/15 03:24:30;;;;;;;;;;;;;;;9.04;43.48;98557.09;4360151;32;34849;-64
2022/12/15 03:26:58;;;;;;;;;;;;;;;9.02;43.44;98552.87;4357437;32;34857;-64
2022/12/15 03:29:25;;;;;;;;;;;;;;;9.01;43.30;98553.84;4359406;32;34682;-63
2022/12/15 03:31:53;;;;;;;;;;;;;;;9.07;43.06;98561.31;4355733;32;35201;-62
2022/12/15 03:34:20;;;;;;;;;;;;;;;9.10;42.88;98569.06;4352864;32;35100;-64
2022/12/15 03:36:47;;;;;;;;;;;;;;;8.97;43.42;98565.78;4357366;32;35006;-64
2022/12/15 03:39:15;;;;;;;;;;;;;;;8.98;43.11;98559.47;4356615;32;33145;-63
2022/12/15 03:41:42;;;;;;;;;;;;;;;8.96;43.11;98562.28;4358880;32;36299;-65
2022/12/15 03:44:09;;;;;;;;;;;;;;;8.84;43.46;98550.00;4359159;32;34082;-64
2022/12/15 03:46:37;;;;;;;;;;;;;;;8.90;43.27;98551.28;4356630;32;32687;-65
2022/12/15 03:49:04;;;;;;;;;;;;;;;8.83;43.33;98553.66;4357503;32;33148;-63
2022/12/15 03:51:31;;;;;;;;;;;;;;;8.85;43.19;98562.34;4355756;32;32829;-63
2022/12/15 03:53:58;;;;;;;;;;;;;;;8.88;42.98;98570.09;4358470;32;35345;-63
2022/12/15 03:56:26;;;;;;;;;;;;;;;8.93;42.80;98573.22;4358251;32;35149;-64
2022/12/15 03:58:53;;;;;;;;;;;;;;;8.93;42.71;98575.03;4358313;32;33613;-65
2022/12/15 04:01:31;;;;;;;;;;;;;;;8.81;43.17;98571.59;4356706;32;34176;-63
2022/12/15 04:03:59;;;;;;;;;;;;;;;8.85;42.97;98573.84;4355693;32;34109;-63
2022/12/15 04:06:28;;;;;;;;;;;;;;;8.67;43.59;98575.47;4360241;32;34221;-64
2022/12/15 04:08:55;;;;;;;;;;;;;;;8.69;43.51;98576.16;4356460;32;33377;-63
2022/12/15 04:11:22;;;;;;;;;;;;;;;8.63;43.76;98590.00;4350642;32;34955;-64
2022/12/15 04:13:49;;;;;;;;;;;;;;;8.74;43.54;98584.63;4357391;32;34387;-64
2022/12/15 04:16:16;;;;;;;;;;;;;;;8.71;43.73;98587.56;4357541;32;34318;-63
2022/12/15 04:20:07;;;;;;;;;;;;;;;8.63;44.08;98593.56;4359209;32;33513;-64
2022/12/15 04:21:34;;;;;;;;;;;;;;;8.69;43.91;98594.00;4354307;32;34678;-64
2022/12/15 05:33:11;;;;;;;;;;;;;;;8.13;46.36;98699.88;4356251;32;34356;-64
2022/12/15 05:35:38;;;;;;;;;;;;;;;8.10;46.00;98697.47;4356042;32;33244;-65
2022/12/15 05:38:05;;;;;;;;;;;;;;;7.83;46.96;98702.34;4355064;32;34102;-65
2022/12/15 05:40:33;;;;;;;;;;;;;;;7.35;48.66;98703.47;4357880;32;34143;-65
2022/12/15 05:43:00;;;;;;;;;;;;;;;7.92;46.87;98698.94;4357140;32;34023;-67
2022/12/15 05:45:27;;;;;;;;;;;;;;;8.12;46.29;98706.19;4356450;32;33498;-64
2022/12/15 05:47:54;;;;;;;;;;;;;;;8.03;46.57;98712.25;4356637;32;32849;-65
2022/12/15 05:50:22;;;;;;;;;;;;;;;8.26;46.01;98722.88;4352613;32;34035;-65
2022/12/15 05:52:49;;;;;;;;;;;;;;;8.21;46.29;98730.38;4353790;32;32776;-69
2022/12/15 05:55:17;;;;;;;;;;;;;;;8.16;46.23;98736.94;4353827;32;33883;-67
2022/12/15 05:57:51;;;;;;;;;;;;;;;8.17;46.24;98743.97;4350410;32;32579;-67
2022/12/15 06:00:19;;;;;;;;;;;;;;;7.88;47.05;98751.63;4353796;32;35474;-66
2022/12/15 06:02:46;;;;;;;;;;;;;;;8.36;45.24;98758.47;4357173;32;33207;-66
2022/12/15 06:05:16;;;;;;;;;;;;;;;8.08;46.31;98755.34;4357328;32;32048;-66
2022/12/15 06:07:43;;;;;;;;;;;;;;;7.83;47.02;98760.94;4352631;32;34161;-66
2022/12/15 06:10:10;;;;;;;;;;;;;;;7.99;46.84;98773.91;4354952;32;35539;-65
2022/12/15 06:12:37;;;;;;;;;;;;;;;8.33;45.83;98782.72;4359684;32;34388;-65
2022/12/15 06:15:05;;;;;;;;;;;;;;;8.07;46.37;98791.00;4355590;32;33375;-65
2022/12/15 06:17:32;;;;;;;;;;;;;;;8.45;45.80;98792.44;4356818;32;34109;-68
2022/12/15 06:19:59;;;;;;;;;;;;;;;8.45;45.63;98783.59;4357504;32;34392;-65
2022/12/15 06:22:27;;;;;;;;;;;;;;;8.39;45.26;98774.25;4359364;32;35135;-65
2022/12/15 06:24:54;;;;;;;;;;;;;;;8.06;46.52;98783.13;4359839;32;33460;-65
2022/12/15 06:27:22;;;;;;;;;;;;;;;8.14;46.47;98791.34;4351615;32;32800;-67
2022/12/15 06:29:49;;;;;;;;;;;;;;;8.22;46.56;98793.38;4354975;32;33978;-67
2022/12/15 06:32:16;;;;;;;;;;;;;;;8.02;46.74;98793.16;4354895;32;32557;-66
2022/12/15 06:34:43;;;;;;;;;;;;;;;8.26;46.09;98784.19;4353754;32;32136;-67
2022/12/15 06:37:11;;;;;;;;;;;;;;;8.01;46.71;98787.97;4355606;32;34171;-67
2022/12/15 06:39:39;;;;;;;;;;;;;;;8.05;46.31;98794.75;4355078;32;35557;-66
2022/12/15 06:42:06;;;;;;;;;;;;;;;7.34;49.37;98805.56;4352560;32;34795;-65
2022/12/15 06:44:33;;;;;;;;;;;;;;;7.86;47.92;98800.66;4357852;32;32147;-65
2022/12/15 06:47:01;;;;;;;;;;;;;;;7.63;47.33;98797.16;4354764;32;35264;-68
2022/12/15 06:49:28;;;;;;;;;;;;;;;7.90;47.07;98799.47;4355435;32;35374;-66
2022/12/15 06:51:55;;;;;;;;;;;;;;;8.04;46.76;98806.38;4351567;32;34610;-65
2022/12/15 06:54:23;;;;;;;;;;;;;;;7.76;47.56;98813.03;4357448;32;33886;-65
2022/12/15 06:56:50;;;;;;;;;;;;;;;7.72;47.81;98827.56;4341791;32;33559;-64
2022/12/15 06:59:17;;;;;;;;;;;;;;;8.15;46.92;98835.69;4353279;32;32447;-66
2022/12/15 07:01:45;;;;;;;;;;;;;;;8.23;46.57;98837.75;4357968;32;34806;-65
2022/12/15 07:04:12;;;;;;;;;;;;;;;7.63;47.77;98839.75;4352808;32;32632;-68
2022/12/15 07:06:41;;;;;;;;;;;;;;;8.27;46.03;98852.53;4356643;32;35810;-64
2022/12/15 07:09:11;;;;;;;;;;;;;;;8.37;46.04;98872.16;4354665;32;34516;-65
2022/12/15 07:11:39;;;;;;;;;;;;;;;8.69;44.94;98874.09;4363676;32;35575;-66
2022/12/15 07:14:07;;;;;;;;;;;;;;;8.40;45.75;98877.28;4358254;32;34176;-66
2022/12/15 07:16:35;;;;;;;;;;;;;;;7.45;47.76;98882.81;4345750;32;34937;-65
2022/12/15 07:19:02;;;;;;;;;;;;;;;7.94;47.19;98867.53;4355124;32;34621;-66
2022/12/15 07:21:29;;;;;;;;;;;;;;;8.00;47.20;98874.22;4357900;32;34231;-66
2022/12/15 07:23:57;;;;;;;;;;;;;;;8.23;47.04;98877.75;4358700;32;34159;-65
2022/12/15 07:26:26;;;;;;;;;;;;;;;8.06;47.05;98871.91;4358350;32;35190;-66
2022/12/15 07:28:53;;;;;;;;;;;;;;;8.42;46.25;98872.69;4355060;32;34201;-66
2022/12/15 07:31:21;;;;;;;;;;;;;;;8.36;46.68;98873.13;4360283;32;34404;-67
2022/12/15 07:33:50;;;;;;;;;;;;;;;6.96;49.29;98877.62;4359777;32;33310;-66
2022/12/15 07:36:18;;;;;;;;;;;;;;;8.14;47.33;98887.28;4354363;32;33886;-67
2022/12/15 07:38:45;;;;;;;;;;;;;;;7.66;48.21;98898.13;4347223;32;35671;-68
2022/12/15 07:41:17;;;;;;;;;;;;;;;8.23;47.10;98886.59;4355659;32;35352;-65
2022/12/15 07:43:45;;;;;;;;;;;;;;;7.90;47.49;98890.91;4354119;32;33897;-67
2022/12/15 07:46:13;;;;;;;;;;;;;;;7.85;48.00;98905.56;4352957;32;34810;-68
2022/12/15 07:48:40;;;;;;;;;;;;;;;7.86;47.90;98883.25;4357821;32;34675;-68
2022/12/15 07:51:08;;;;;;;;;;;;;;;8.37;46.44;98875.66;4356731;32;34127;-67
2022/12/15 07:53:46;;;;;;;;;;;;;;;8.05;48.09;98888.00;4355004;32;32210;-66
2022/12/15 07:56:14;;;;;;;;;;;;;;;8.04;47.96;98903.16;4354904;32;34113;-65
2022/12/15 07:58:41;;;;;;;;;;;;;;;7.89;48.29;98904.34;4360644;32;35117;-66
2022/12/15 08:01:09;;;;;;;;;;;;;;;6.33;51.79;98906.09;4359460;32;34817;-65
2022/12/15 08:03:37;;;;;;;;;;;;;;;7.03;49.89;98910.81;4359851;32;34215;-65
2022/12/15 08:06:06;;;;;;;;;;;;;;;7.71;49.10;98909.28;4359487;32;34006;-65
2022/12/15 08:08:34;;;;;;;;;;;;;;;7.44;49.54;98918.37;4349790;32;32494;-65
2022/12/15 08:11:09;;;;;;;;;;;;;;;6.80;51.55;98911.63;4359941;32;34544;-66
2022/12/15 08:13:37;;;;;;;;;;;;;;;7.40;50.18;98924.91;4357914;32;33962;-66
2022/12/15 08:16:24;;;;;;;;;;;;;;;6.63;51.12;98919.03;4360949;32;33997;-66
2022/12/15 08:18:52;;;;;;;;;;;;;;;6.86;51.20;98932.47;4360751;32;34593;-65
2022/12/15 08:21:19;;;;;;;;;;;;;;;7.08;50.76;98937.09;4356446;32;35340;-65
2022/12/15 08:23:47;;;;;;;;;;;;;;;7.73;49.27;98936.63;4359969;32;33645;-66
2022/12/15 08:26:15;;;;;;;;;;;;;;;7.85;49.25;98941.03;4361258;32;35074;-66
2022/12/15 08:28:42;;;;;;;;;;;;;;;7.94;49.99;98945.66;4360497;32;34273;-66
2022/12/15 08:31:11;;;;;;;;;;;;;;;6.72;51.12;98944.94;4358361;32;34050;-66
2022/12/15 08:33:38;;;;;;;;;;;;;;;6.97;52.11;98938.72;4359087;32;33684;-66
2022/12/15 08:36:07;;;;;;;;;;;;;;;6.58;52.54;98937.12;4362549;32;35490;-66
2022/12/15 08:38:35;;;;;;;;;;;;;;;7.83;49.43;98939.44;4349531;32;33888;-67
2022/12/15 08:41:06;;;;;;;;;;;;;;;8.07;48.90;98947.38;4366101;32;34944;-66
2022/12/15 08:43:33;;;;;;;;;;;;;;;8.10;48.66;98944.47;4356808;32;33216;-66
2022/12/15 08:46:01;;;;;;;;;;;;;;;7.71;49.09;98943.91;4356748;32;34136;-66
2022/12/15 08:48:28;;;;;;;;;;;;;;;8.24;48.46;98954.91;4361332;32;35123;-66
2022/12/15 08:50:56;;;;;;;;;;;;;;;6.06;53.40;98969.97;4358646;32;34866;-66
2022/12/15 08:53:24;;;;;;;;;;;;;;;7.05;51.67;98967.41;4359244;32;33391;-66
2022/12/15 08:56:03;;;;;;;;;;;;;;;5.82;54.91;98981.28;4358853;32;34169;-66
2022/12/15 08:58:30;;;;;;;;;;;;;;;7.56;50.58;98977.84;4357698;32;34138;-66
2022/12/15 09:01:05;;;;;;;;;;;;;;;7.21;50.99;98969.81;4358001;32;34734;-66
2022/12/15 09:03:33;;;;;;;;;;;;;;;7.53;50.98;98978.09;4360048;32;33632;-66
2022/12/15 09:06:02;;;;;;;;;;;;;;;7.78;50.44;98970.94;4359518;32;34825;-66
2022/12/15 09:08:30;;;;;;;;;;;;;;;7.56;50.52;98971.69;4361302;32;35123;-66
2022/12/15 09:10:57;;;;;;;;;;;;;;;7.80;50.41;98963.66;4364540;32;32766;-66
2022/12/15 09:13:25;;;;;;;;;;;;;;;8.02;49.21;98971.72;4332401;32;796404;-66
2022/12/15 09:15:59;;;;;;;;;;;;;;;7.66;50.55;98973.53;4356717;32;32716;-66
2022/12/15 09:18:42;;;;;;;;;;;;;;;8.20;49.27;98969.47;4355237;32;34567;-66
2022/12/15 09:21:10;;;;;;;;;;;;;;;8.31;48.63;98958.78;4355794;32;34583;-66
2022/12/15 09:23:37;;;;;;;;;;;;;;;8.27;49.52;98962.69;4344821;32;33536;-66
2022/12/15 09:26:13;;;;;;;;;;;;;;;8.56;48.07;98952.41;4363295;32;34442;-66
2022/12/15 09:28:41;;;;;;;;;;;;;;;8.09;49.28;98956.97;4360977;32;35218;-66
2022/12/15 09:31:09;;;;;;;;;;;;;;;8.14;48.88;98961.94;4346137;32;32208;-66
2022/12/15 09:33:36;;;;;;;;;;;;;;;8.56;47.73;98963.09;4363743;32;33603;-66
2022/12/15 09:36:04;;;;;;;;;;;;;;;8.15;49.10;98951.16;4359050;32;34143;-66
2022/12/15 09:38:32;;;;;;;;;;;;;;;7.95;49.54;98946.50;4361209;32;34069;-66
2022/12/15 09:41:20;;;;;;;;;;;;;;;8.53;48.41;98957.16;4364605;32;34577;-67
2022/12/15 09:43:52;;;;;;;;;;;;;;;7.97;50.00;98952.56;4362512;32;33078;-66
2022/12/15 09:46:34;;;;;;;;;;;;;;;7.94;50.49;98968.78;4346075;32;33867;-66
2022/12/15 09:49:04;;;;;;;;;;;;;;;8.50;48.38;98970.72;4350990;32;34281;-66
2022/12/15 09:51:58;;;;;;;;;;;;;;;7.88;50.16;98966.59;4355826;32;33567;-66
2022/12/15 09:54:25;;;;;;;;;;;;;;;7.41;51.48;98979.84;4361406;32;33662;-68
2022/12/15 09:56:54;;;;;;;;;;;;;;;6.79;53.08;98979.94;4347748;32;34442;-67
2022/12/15 09:59:45;;;;;;;;;;;;;;;7.67;50.78;98977.91;4357512;32;33006;-66
2022/12/15 10:02:26;;;;;;;;;;;;;;;8.27;49.39;98992.00;4337002;32;34047;-65
2022/12/15 10:04:58;;;;;;;;;;;;;;;6.26;53.86;98997.84;4358876;32;33177;-65
2022/12/15 10:07:31;;;;;;;;;;;;;;;8.10;50.04;98992.47;4352842;32;33871;-65
2022/12/15 10:09:58;;;;;;;;;;;;;;;8.34;48.95;98990.56;4356449;32;34019;-66
2022/12/15 10:12:28;;;;;;;;;;;;;;;8.26;49.83;98981.47;4347104;32;34795;-65
2022/12/15 10:15:05;;;;;;;;;;;;;;;8.02;50.45;98978.84;4359399;32;32485;-67
2022/12/15 10:17:32;;;;;;;;;;;;;;;7.98;49.74;98988.06;4356020;32;37071;-65
2022/12/15 10:20:03;;;;;;;;;;;;;;;8.69;48.07;98994.13;4360079;32;33585;-65
2022/12/15 10:22:31;;;;;;;;;;;;;;;8.91;47.73;98983.47;4356047;32;33228;-66
2022/12/15 10:25:01;;;;;;;;;;;;;;;8.68;48.74;98981.78;4345432;32;33563;-66
2022/12/15 10:27:56;;;;;;;;;;;;;;;7.83;50.58;98976.75;4357419;32;33809;-66
2022/12/15 10:30:24;;;;;;;;;;;;;;;7.46;52.30;98961.72;4360018;32;34010;-67
2022/12/15 10:32:58;;;;;;;;;;;;;;;7.68;52.13;98960.12;4358188;32;34544;-69
2022/12/15 10:35:30;;;;;;;;;;;;;;;8.56;50.04;98962.25;4342834;32;32762;-66
2022/12/15 10:37:58;;;;;;;;;;;;;;;7.32;52.40;98955.69;4357580;32;33971;-66
2022/12/15 10:40:41;;;;;;;;;;;;;;;7.06;53.39;98962.94;4361499;32;34431;-66
2022/12/15 10:43:25;;;;;;;;;;;;;;;7.02;54.45;98966.78;4362776;32;34116;-65
2022/12/15 10:45:59;;;;;;;;;;;;;;;8.05;51.23;98982.13;4361450;32;33649;-68
2022/12/15 10:48:27;;;;;;;;;;;;;;;7.34;52.95;98975.09;4360607;32;34257;-65
2022/12/15 10:51:13;;;;;;;;;;;;;;;7.37;52.88;98974.84;4356791;32;34024;-68
2022/12/15 10:53:41;;;;;;;;;;;;;;;8.29;50.52;98975.91;4360570;32;34312;-68
2022/12/15 10:56:12;;;;;;;;;;;;;;;8.05;51.33;98962.63;4359275;32;34319;-69
2022/12/15 10:58:52;;;;;;;;;;;;;;;8.14;51.05;98965.44;4358333;32;33243;-68
2022/12/15 11:01:23;;;;;;;;;;;;;;;8.70;49.72;98958.47;4356812;32;34301;-65
2022/12/15 11:03:51;;;;;;;;;;;;;;;8.27;50.81;98960.00;4360212;32;35324;-65
2022/12/15 11:06:23;;;;;;;;;;;;;;;8.48;50.35;98962.88;4358779;32;33682;-64
2022/12/15 11:08:52;;;;;;;;;;;;;;;8.45;49.93;98968.44;4345768;32;34184;-69
2022/12/15 11:14:26;;;;;;;;;;;;;;;6.80;54.49;98978.13;4345420;32;35256;-65
2022/12/15 11:16:54;;;;;;;;;;;;;;;8.57;50.17;98970.16;4346223;32;33392;-69
2022/12/15 11:19:24;;;;;;;;;;;;;;;7.74;52.21;98980.09;4360964;32;33683;-66
2022/12/15 11:21:52;;;;;;;;;;;;;;;8.39;50.09;98987.56;4357819;32;34478;-67
2022/12/15 11:24:21;;;;;;;;;;;;;;;8.93;49.25;98975.34;4347536;32;34007;-67
2022/12/15 11:26:52;;;;;;;;;;;;;;;7.70;52.21;98968.81;4356121;32;34477;-67
2022/12/15 11:29:22;;;;;;;;;;;;;;;8.98;48.92;98963.31;4343617;32;33374;-67
2022/12/15 11:31:50;;;;;;;;;;;;;;;8.22;51.44;98970.19;4337849;32;34501;-66
2022/12/15 11:34:19;;;;;;;;;;;;;;;8.48;50.37;98972.69;4352116;32;34245;-65
2022/12/15 11:36:53;;;;;;;;;;;;;;;8.96;49.30;98967.09;4350490;32;33088;-66
2022/12/15 11:39:41;;;;;;;;;;;;;;;8.90;48.96;98971.09;4347644;32;34197;-65
2022/12/15 11:42:12;;;;;;;;;;;;;;;7.68;52.33;98971.63;4344251;32;34202;-66
2022/12/15 11:45:01;;;;;;;;;;;;;;;7.96;51.95;98971.31;4352994;32;35201;-66
2022/12/15 11:47:48;;;;;;;;;;;;;;;8.51;50.76;98983.97;4340615;32;31528;-65
2022/12/15 11:50:28;;;;;;;;;;;;;;;8.61;50.22;98984.94;4342222;32;33620;-65
2022/12/15 11:52:59;;;;;;;;;;;;;;;8.76;49.91;98992.69;4333739;33;34357;-65
2022/12/15 11:55:34;;;;;;;;;;;;;;;9.17;48.93;98993.88;4343946;32;34184;-65
2022/12/15 11:58:23;;;;;;;;;;;;;;;9.39;48.44;98987.63;4334325;32;33430;-65
2022/12/15 12:00:56;;;;;;;;;;;;;;;9.50;48.31;98985.78;4345100;32;35545;-65
2022/12/15 12:03:26;;;;;;;;;;;;;;;9.57;48.19;98992.31;4339290;32;34191;-65
2022/12/15 12:05:57;;;;;;;;;;;;;;;10.01;46.69;98989.56;4331426;32;32630;-65
2022/12/15 12:08:28;;;;;;;;;;;;;;;10.02;46.61;98988.59;4334201;32;33209;-65
2022/12/15 12:11:14;;;;;;;;;;;;;;;8.69;49.84;98989.66;4339171;32;32496;-65
2022/12/15 12:14:00;;;;;;;;;;;;;;;9.64;48.25;98976.62;4350767;32;34457;-65
2022/12/15 12:16:33;;;;;;;;;;;;;;;9.64;48.21;98984.63;4349150;32;33774;-65
2022/12/15 12:19:04;;;;;;;;;;;;;;;9.94;47.55;98972.34;4353798;32;33787;-66
2022/12/15 12:21:36;;;;;;;;;;;;;;;9.59;48.60;98975.28;4343434;32;34756;-66
2022/12/15 12:24:10;;;;;;;;;;;;;;;9.54;48.84;98976.53;4345749;32;34459;-66
2022/12/15 12:26:44;;;;;;;;;;;;;;;10.11;47.72;98979.81;4352919;32;34785;-66
2022/12/15 12:29:30;;;;;;;;;;;;;;;10.14;47.90;98981.34;4353005;32;33383;-65
2022/12/15 12:32:00;;;;;;;;;;;;;;;9.85;48.65;98957.91;4360291;32;35311;-66
2022/12/15 12:34:37;;;;;;;;;;;;;;;9.50;49.05;98959.06;4354205;32;34224;-67
2022/12/15 12:37:15;;;;;;;;;;;;;;;9.52;49.33;98972.28;4359417;32;34048;-67
2022/12/15 12:39:43;;;;;;;;;;;;;;;8.53;51.66;98968.66;4347029;32;33639;-67
2022/12/15 12:42:15;;;;;;;;;;;;;;;9.59;49.21;98968.12;4347284;32;33925;-67
2022/12/15 12:44:43;;;;;;;;;;;;;;;9.25;49.85;98962.91;4342641;32;33792;-67
2022/12/15 12:47:10;;;;;;;;;;;;;;;9.20;50.35;98965.09;4359584;32;35192;-67
2022/12/15 12:49:39;;;;;;;;;;;;;;;9.59;49.53;98961.94;4356945;32;33482;-67
2022/12/15 12:52:14;;;;;;;;;;;;;;;9.92;48.42;98964.47;4346968;32;34357;-65
2022/12/15 12:54:42;;;;;;;;;;;;;;;9.74;48.88;98961.50;4344201;32;34135;-64
2022/12/15 12:57:09;;;;;;;;;;;;;;;9.75;49.29;98976.56;4356006;32;35228;-64
2022/12/15 12:59:37;;;;;;;;;;;;;;;9.65;49.51;98980.97;4356786;32;33380;-65
2022/12/15 13:02:13;;;;;;;;;;;;;;;9.82;48.58;98976.88;4353977;32;31912;-66
2022/12/15 13:04:43;;;;;;;;;;;;;;;9.55;49.67;98978.22;4358772;32;33929;-64
2022/12/15 13:07:28;;;;;;;;;;;;;;;9.71;49.38;98977.78;4360844;32;34281;-64
2022/12/15 13:10:07;;;;;;;;;;;;;;;9.61;49.57;98992.06;4361467;32;33456;-64
2022/12/15 13:12:51;;;;;;;;;;;;;;;8.49;52.08;98995.72;4358407;32;35215;-64
2022/12/15 13:15:40;;;;;;;;;;;;;;;8.63;52.22;98999.00;4359836;32;34294;-64
2022/12/15 13:18:07;;;;;;;;;;;;;;;9.26;50.54;98993.97;4362317;32;34272;-64
2022/12/15 13:20:35;;;;;;;;;;;;;;;8.79;51.83;99005.78;4358057;32;33305;-64
2022/12/15 13:23:20;;;;;;;;;;;;;;;8.92;51.48;99002.97;4360532;32;32782;-65
2022/12/15 13:25:56;;;;;;;;;;;;;;;9.05;50.98;99003.69;4353066;32;35580;-65
2022/12/15 13:28:43;;;;;;;;;;;;;;;9.16;50.99;98989.50;4344752;32;32607;-65
2022/12/15 13:31:12;;;;;;;;;;;;;;;8.99;51.21;98998.84;4357843;32;33233;-65
2022/12/15 13:34:00;;;;;;;;;;;;;;;9.14;50.67;98994.94;4358688;32;32791;-65
2022/12/15 13:36:36;;;;;;;;;;;;;;;8.96;51.39;99007.12;4344075;32;34357;-65
2022/12/15 13:39:24;;;;;;;;;;;;;;;9.23;50.63;99004.03;4360120;32;34349;-64
2022/12/15 13:41:51;;;;;;;;;;;;;;;9.02;51.51;99007.50;4359104;32;33525;-64
2022/12/15 13:44:41;;;;;;;;;;;;;;;9.10;51.18;99010.37;4347904;32;33752;-64
2022/12/15 13:47:14;;;;;;;;;;;;;;;9.48;50.41;99000.22;4356651;32;34588;-64
2022/12/15 13:49:46;;;;;;;;;;;;;;;9.26;50.96;98999.31;4357319;32;33990;-64
2022/12/15 13:52:27;;;;;;;;;;;;;;;9.29;51.34;98992.88;4360037;32;33136;-65
2022/12/15 13:55:22;;;;;;;;;;;;;;;9.23;51.29;99002.22;4358658;32;32500;-65
2022/12/15 13:57:59;;;;;;;;;;;;;;;8.93;51.92;99005.53;4358498;32;34257;-65
2022/12/15 14:00:26;;;;;;;;;;;;;;;8.90;52.59;99008.47;4358880;32;33865;-63
2022/12/15 14:03:09;;;;;;;;;;;;;;;8.52;53.76;99011.47;4357871;32;33368;-66
2022/12/15 14:05:38;;;;;;;;;;;;;;;8.92;52.93;99003.81;4357951;32;32328;-64
2022/12/15 14:08:17;;;;;;;;;;;;;;;9.04;52.38;99000.19;4357823;32;34421;-65
2022/12/15 14:10:46;;;;;;;;;;;;;;;8.85;52.94;98994.63;4356170;32;34153;-65
2022/12/15 14:13:21;;;;;;;;;;;;;;;8.68;53.76;99000.47;4343985;32;33081;-65
2022/12/15 14:15:53;;;;;;;;;;;;;;;8.61;54.02;98997.44;4342227;32;35256;-65
2022/12/15 14:18:21;;;;;;;;;;;;;;;8.91;53.32;98999.47;4359409;32;34949;-65
2022/12/15 14:20:48;;;;;;;;;;;;;;;8.93;53.06;98992.19;4345527;32;33748;-65
2022/12/15 14:23:18;;;;;;;;;;;;;;;8.55;54.32;98987.22;4353610;32;34128;-65
2022/12/15 14:26:02;;;;;;;;;;;;;;;8.75;54.17;98983.84;4359012;32;34595;-65
2022/12/15 14:28:37;;;;;;;;;;;;;;;7.95;56.16;98986.47;4354822;32;35104;-64
2022/12/15 14:31:15;;;;;;;;;;;;;;;8.65;54.31;98985.53;4358516;32;34209;-63
2022/12/15 14:33:42;;;;;;;;;;;;;;;8.85;53.87;98986.63;4345254;32;34255;-64
2022/12/15 14:36:11;;;;;;;;;;;;;;;8.52;54.88;98987.47;4352424;32;34455;-64
2022/12/15 14:38:57;;;;;;;;;;;;;;;8.45;54.77;98992.44;4345231;32;33706;-64
2022/12/15 14:41:26;;;;;;;;;;;;;;;8.73;54.02;98996.47;4331249;32;35178;-65
2022/12/15 14:43:58;;;;;;;;;;;;;;;8.82;54.13;99005.53;4356436;32;33539;-64
2022/12/15 14:46:46;;;;;;;;;;;;;;;9.02;53.68;99001.28;4340096;32;32577;-64
2022/12/15 14:49:17;;;;;;;;;;;;;;;9.16;52.99;98998.34;4357944;32;34303;-65
2022/12/15 14:51:45;;;;;;;;;;;;;;;9.13;52.78;99001.28;4352991;32;34186;-65
2022/12/15 14:54:25;;;;;;;;;;;;;;;8.77;53.36;99002.41;4355898;32;34165;-64
2022/12/15 14:57:08;;;;;;;;;;;;;;;8.87;53.78;99014.03;4342534;32;34495;-64
2022/12/15 14:59:39;;;;;;;;;;;;;;;8.98;53.49;99026.53;4355311;32;34281;-65
2022/12/15 15:02:14;;;;;;;;;;;;;;;9.01;53.41;99020.94;4355810;32;34882;-65
2022/12/15 15:04:41;;;;;;;;;;;;;;;8.05;56.56;99006.12;4352877;32;33458;-64
2022/12/15 15:07:16;;;;;;;;;;;;;;;7.89;57.39;99030.41;4356726;32;33765;-64
2022/12/15 15:09:43;;;;;;;;;;;;;;;7.55;58.32;99024.09;4346715;32;34551;-65
2022/12/15 15:12:12;;;;;;;;;;;;;;;8.54;55.32;99021.06;4347556;32;34961;-65
2022/12/15 15:14:41;;;;;;;;;;;;;;;8.67;54.55;99023.63;4356764;32;32975;-65
2022/12/15 15:17:11;;;;;;;;;;;;;;;8.75;54.73;99029.19;4359148;32;33467;-65
2022/12/15 15:19:44;;;;;;;;;;;;;;;8.01;57.16;99020.66;4361547;32;34688;-64
2022/12/15 15:22:17;;;;;;;;;;;;;;;8.44;55.79;99005.88;4360883;32;34223;-65
2022/12/15 15:24:49;;;;;;;;;;;;;;;8.24;56.46;99002.06;4345009;32;34273;-64
2022/12/15 15:27:22;;;;;;;;;;;;;;;7.98;56.58;98996.91;4357131;32;35007;-64
2022/12/15 15:29:50;;;;;;;;;;;;;;;8.61;55.46;99000.94;4359605;32;34292;-64
2022/12/15 15:32:19;;;;;;;;;;;;;;;8.52;55.78;98996.31;4357647;32;34454;-65
2022/12/15 15:34:46;;;;;;;;;;;;;;;7.58;58.28;98999.91;4358276;32;33452;-64
2022/12/15 15:37:18;;;;;;;;;;;;;;;8.53;55.58;98983.81;4359421;32;34341;-65
2022/12/15 15:39:48;;;;;;;;;;;;;;;8.51;55.71;98996.44;4348173;32;32861;-65
2022/12/15 15:42:16;;;;;;;;;;;;;;;7.91;57.83;98991.19;4346427;32;33981;-65